Time;durP1;ratioP1;P1;durP2;ratioP2;P2;SDS_P1;SDS_P2;PMS_P1;PMS_P2;Temp;Humidity;BMP_temperature;BMP_pressure;BME280_temperature;BME280_humidity;BME280_pressure;Samples;Min_cycle;Max_cycle;Signal;HPM_P1;HPM_P2
2022/09/01 00:01:23;;;;;;;;;;;14.80;99.90;;;;;;5090955;28;19924;-57
2022/09/01 00:03:51;;;;;;;;;;;14.80;99.90;;;;;;5100908;28;19923;-63
2022/09/01 00:06:21;;;;;;;;;;;14.80;99.90;;;;;;5095236;28;19924;-61
2022/09/01 00:08:50;;;;;;;;;;;14.80;99.90;;;;;;5095054;28;19923;-57
2022/09/01 00:11:18;;;;;;;;;;;14.70;99.90;;;;;;5079646;28;19939;-57
2022/09/01 00:13:45;;;;;;;;;;;14.70;99.90;;;;;;5082866;28;19925;-57
2022/09/01 00:16:15;;;;;;;;;;;14.70;99.90;;;;;;5071392;28;20283;-58
2022/09/01 00:18:48;;;;;;;;;;;14.70;99.90;;;;;;5087050;28;20669;-57
2022/09/01 00:21:21;;;;;;;;;;;14.70;99.90;;;;;;5085560;28;20420;-57
2022/09/01 00:23:48;;;;;;;;;;;14.70;99.90;;;;;;5086648;28;19924;-55
2022/09/01 00:26:16;;;;;;;;;;;14.70;99.90;;;;;;5082685;28;20413;-57
2022/09/01 00:28:43;;;;;;;;;;;14.70;99.90;;;;;;5079266;28;19928;-55
2022/09/01 00:31:12;;;;;;;;;;;14.70;99.90;;;;;;5087647;28;19924;-57
2022/09/01 00:33:39;;;;;;;;;;;14.70;99.90;;;;;;5087819;28;19924;-57
2022/09/01 00:36:07;;;;;;;;;;;14.70;99.90;;;;;;5080142;28;19926;-57
2022/09/01 00:38:35;;;;;;;;;;;14.70;99.90;;;;;;5078860;28;19924;-57
2022/09/01 00:41:03;;;;;;;;;;;14.70;99.90;;;;;;5075670;28;19932;-57
2022/09/01 00:43:37;;;;;;;;;;;14.60;99.90;;;;;;5114398;27;20382;-57
2022/09/01 00:46:05;;;;;;;;;;;14.60;99.90;;;;;;5082866;28;19928;-57
2022/09/01 00:48:36;;;;;;;;;;;14.60;99.90;;;;;;5079215;28;19931;-54
2022/09/01 00:51:06;;;;;;;;;;;14.60;99.90;;;;;;5085183;28;19936;-55
2022/09/01 00:53:34;;;;;;;;;;;14.60;99.90;;;;;;5089456;28;20398;-57
2022/09/01 00:56:02;;;;;;;;;;;14.50;99.90;;;;;;5078385;28;19933;-55
2022/09/01 00:58:30;;;;;;;;;;;14.50;99.90;;;;;;5091552;28;19938;-54
2022/09/01 01:00:58;;;;;;;;;;;14.50;99.90;;;;;;5095961;28;19943;-58
2022/09/01 01:03:25;;;;;;;;;;;14.40;99.90;;;;;;5077007;28;19932;-54
2022/09/01 01:05:54;;;;;;;;;;;14.40;99.90;;;;;;5066121;28;19928;-54
2022/09/01 01:08:33;;;;;;;;;;;14.40;99.90;;;;;;5079136;28;19924;-54
2022/09/01 01:11:02;;;;;;;;;;;14.30;99.90;;;;;;5084831;28;19929;-57
2022/09/01 01:13:50;;;;;;;;;;;14.20;99.90;;;;;;5077771;28;19924;-58
2022/09/01 01:16:18;;;;;;;;;;;14.20;99.90;;;;;;5073899;28;19924;-57
2022/09/01 01:18:46;;;;;;;;;;;14.20;99.90;;;;;;5087698;28;20321;-57
2022/09/01 01:24:24;;;;;;;;;;;14.10;99.90;;;;;;5102282;28;19938;-56
2022/09/01 01:26:52;;;;;;;;;;;14.10;99.90;;;;;;5074554;28;19931;-55
2022/09/01 01:29:20;;;;;;;;;;;14.00;99.90;;;;;;5078790;28;19932;-57
2022/09/01 01:31:51;;;;;;;;;;;14.00;99.90;;;;;;5082962;28;19924;-54
2022/09/01 01:34:19;;;;;;;;;;;13.90;99.90;;;;;;5095384;28;19931;-54
2022/09/01 01:36:47;;;;;;;;;;;13.90;99.90;;;;;;5079392;28;19924;-55
2022/09/01 01:39:16;;;;;;;;;;;13.90;99.90;;;;;;5092316;28;19924;-56
2022/09/01 01:41:47;;;;;;;;;;;13.80;99.90;;;;;;5071444;28;19932;-54
2022/09/01 01:44:17;;;;;;;;;;;13.80;99.90;;;;;;5077277;28;19931;-54
2022/09/01 01:46:49;;;;;;;;;;;13.80;99.90;;;;;;5080736;28;20402;-54
2022/09/01 01:49:18;;;;;;;;;;;13.80;99.90;;;;;;5071176;28;19925;-56
2022/09/01 01:51:49;;;;;;;;;;;13.80;99.90;;;;;;5075658;28;20312;-56
2022/09/01 01:54:18;;;;;;;;;;;13.80;99.90;;;;;;5084164;28;19925;-58
2022/09/01 01:56:47;;;;;;;;;;;13.70;99.90;;;;;;5078593;28;20288;-56
2022/09/01 01:59:15;;;;;;;;;;;13.70;99.90;;;;;;5073797;28;19924;-56
2022/09/01 02:01:48;;;;;;;;;;;13.60;99.90;;;;;;5086394;28;19932;-57
2022/09/01 02:04:16;;;;;;;;;;;13.60;99.90;;;;;;5081072;28;19931;-55
2022/09/01 02:06:46;;;;;;;;;;;13.60;99.90;;;;;;5084622;28;20291;-57
2022/09/01 02:09:17;;;;;;;;;;;13.60;99.90;;;;;;5084969;28;19928;-57
2022/09/01 02:11:44;;;;;;;;;;;13.60;99.90;;;;;;5086639;28;19932;-57
2022/09/01 02:14:14;;;;;;;;;;;13.60;99.90;;;;;;5070459;28;20379;-56
2022/09/01 02:16:42;;;;;;;;;;;13.50;99.90;;;;;;5054914;28;19931;-56
2022/09/01 02:19:11;;;;;;;;;;;13.50;99.90;;;;;;5059511;28;19961;-57
2022/09/01 02:21:43;;;;;;;;;;;13.50;99.90;;;;;;5084228;28;20290;-55
2022/09/01 02:24:11;;;;;;;;;;;13.50;99.90;;;;;;5077695;28;19924;-57
2022/09/01 02:26:44;;;;;;;;;;;13.50;99.90;;;;;;5071644;28;19924;-55
2022/09/01 02:29:17;;;;;;;;;;;13.40;99.90;;;;;;5083729;28;19932;-57
2022/09/01 02:31:47;;;;;;;;;;;13.40;99.90;;;;;;5070127;28;20422;-57
2022/09/01 02:34:15;;;;;;;;;;;13.40;99.90;;;;;;5071137;28;19924;-58
2022/09/01 02:36:46;;;;;;;;;;;13.40;99.90;;;;;;5082602;28;19940;-57
2022/09/01 02:39:22;;;;;;;;;;;13.40;99.90;;;;;;5103851;28;19947;-57
2022/09/01 02:41:50;;;;;;;;;;;13.30;99.90;;;;;;5086924;28;19924;-57
2022/09/01 02:44:23;;;;;;;;;;;13.30;99.90;;;;;;5090861;28;19931;-58
2022/09/01 02:46:50;;;;;;;;;;;13.30;99.90;;;;;;5083943;28;19931;-57
2022/09/01 02:49:28;;;;;;;;;;;13.30;99.90;;;;;;5081156;28;19924;-57
2022/09/01 02:52:00;;;;;;;;;;;13.30;99.90;;;;;;5072854;28;19931;-58
2022/09/01 02:54:30;;;;;;;;;;;13.30;99.90;;;;;;5072733;28;19951;-61
2022/09/01 02:56:58;;;;;;;;;;;13.20;99.90;;;;;;5079120;28;19931;-58
2022/09/01 02:59:26;;;;;;;;;;;13.30;99.90;;;;;;5089909;28;19931;-60
2022/09/01 03:01:58;;;;;;;;;;;13.20;99.90;;;;;;5089926;28;20268;-58
2022/09/01 03:04:25;;;;;;;;;;;13.20;99.90;;;;;;5070951;28;19932;-59
2022/09/01 03:06:57;;;;;;;;;;;13.20;99.90;;;;;;5069811;28;19932;-55
2022/09/01 03:09:25;;;;;;;;;;;13.20;99.90;;;;;;5079139;28;19931;-54
2022/09/01 03:11:53;;;;;;;;;;;13.30;99.90;;;;;;5073703;28;19932;-56
2022/09/01 03:14:23;;;;;;;;;;;13.30;99.90;;;;;;5055846;28;19924;-54
2022/09/01 03:16:50;;;;;;;;;;;13.30;99.90;;;;;;5070160;28;19925;-54
2022/09/01 03:19:19;;;;;;;;;;;13.30;99.90;;;;;;5069978;28;20396;-54
2022/09/01 03:21:47;;;;;;;;;;;13.30;99.90;;;;;;5102081;28;19932;-54
2022/09/01 03:24:20;;;;;;;;;;;13.30;99.90;;;;;;5069888;28;19924;-57
2022/09/01 03:26:50;;;;;;;;;;;13.30;99.90;;;;;;5081580;28;19931;-55
2022/09/01 03:29:19;;;;;;;;;;;13.30;99.90;;;;;;5093661;28;19981;-54
2022/09/01 03:31:46;;;;;;;;;;;13.30;99.90;;;;;;5073002;28;20318;-57
2022/09/01 03:34:15;;;;;;;;;;;13.30;99.90;;;;;;5084845;28;19925;-55
2022/09/01 03:36:53;;;;;;;;;;;13.30;99.90;;;;;;5074820;28;19933;-58
2022/09/01 03:39:28;;;;;;;;;;;13.30;99.90;;;;;;5094252;28;19924;-54
2022/09/01 03:41:57;;;;;;;;;;;13.30;99.90;;;;;;5082799;28;19925;-55
2022/09/01 03:44:26;;;;;;;;;;;13.40;99.90;;;;;;5080369;28;19924;-55
2022/09/01 03:46:53;;;;;;;;;;;13.30;99.90;;;;;;5092506;28;19986;-55
2022/09/01 03:49:26;;;;;;;;;;;13.20;99.90;;;;;;5093323;28;19924;-55
2022/09/01 03:51:57;;;;;;;;;;;13.30;99.90;;;;;;5082017;28;19931;-54
2022/09/01 03:54:27;;;;;;;;;;;13.30;99.90;;;;;;5075579;28;19978;-54
2022/09/01 03:56:58;;;;;;;;;;;13.30;99.90;;;;;;5076736;28;19935;-55
2022/09/01 03:59:28;;;;;;;;;;;13.30;99.90;;;;;;5086042;28;19925;-54
2022/09/01 04:01:57;;;;;;;;;;;13.40;99.90;;;;;;5078637;28;19924;-54
2022/09/01 04:04:24;;;;;;;;;;;13.30;99.90;;;;;;5085186;28;19933;-55
2022/09/01 04:06:52;;;;;;;;;;;13.30;99.90;;;;;;5106322;28;19935;-54
2022/09/01 04:09:19;;;;;;;;;;;13.40;99.90;;;;;;5080275;28;19924;-54
2022/09/01 04:11:47;;;;;;;;;;;13.40;99.90;;;;;;5091565;28;20291;-54
2022/09/01 04:14:15;;;;;;;;;;;13.40;99.90;;;;;;5090687;28;19925;-54
2022/09/01 04:19:37;;;;;;;;;;;13.50;99.90;;;;;;5090250;28;19924;-54
2022/09/01 04:22:06;;;;;;;;;;;13.50;99.90;;;;;;5083944;28;19931;-57
2022/09/01 04:24:44;;;;;;;;;;;13.60;99.90;;;;;;5093554;28;19931;-55
2022/09/01 04:27:12;;;;;;;;;;;13.60;99.90;;;;;;5078084;28;19928;-55
2022/09/01 04:29:40;;;;;;;;;;;13.70;99.90;;;;;;5090562;28;19924;-54
2022/09/01 04:32:11;;;;;;;;;;;13.80;99.90;;;;;;5075603;28;19924;-54
2022/09/01 04:34:42;;;;;;;;;;;13.90;99.90;;;;;;5088453;28;19928;-57
2022/09/01 04:37:16;;;;;;;;;;;13.90;99.90;;;;;;5081780;28;19924;-56
2022/09/01 04:39:52;;;;;;;;;;;14.00;99.90;;;;;;5092144;28;19928;-55
2022/09/01 04:42:24;;;;;;;;;;;14.00;99.90;;;;;;5073661;28;19924;-54
2022/09/01 04:44:53;;;;;;;;;;;14.10;99.90;;;;;;5072628;28;19925;-57
2022/09/01 04:47:28;;;;;;;;;;;14.10;99.90;;;;;;5084940;28;20391;-57
2022/09/01 04:50:11;;;;;;;;;;;14.20;99.90;;;;;;5081377;28;20294;-57
2022/09/01 04:52:42;;;;;;;;;;;14.20;99.90;;;;;;5067206;28;19931;-57
2022/09/01 04:55:19;;;;;;;;;;;14.30;99.90;;;;;;5074345;28;19931;-58
2022/09/01 04:57:48;;;;;;;;;;;14.30;99.90;;;;;;5079951;28;20318;-57
2022/09/01 05:00:23;;;;;;;;;;;14.30;99.90;;;;;;5089725;28;20497;-57
2022/09/01 05:02:52;;;;;;;;;;;14.30;99.90;;;;;;5072295;28;20331;-58
2022/09/01 05:05:21;;;;;;;;;;;14.30;99.90;;;;;;5066048;28;19928;-57
2022/09/01 05:07:51;;;;;;;;;;;14.30;99.90;;;;;;5072489;28;19939;-57
2022/09/01 05:10:21;;;;;;;;;;;14.30;99.90;;;;;;5098685;28;19924;-55
2022/09/01 05:13:11;;;;;;;;;;;14.30;99.90;;;;;;5080170;28;19928;-57
2022/09/01 05:15:45;;;;;;;;;;;14.20;99.90;;;;;;5085378;28;19957;-56
2022/09/01 05:18:22;;;;;;;;;;;14.10;99.90;;;;;;5080964;28;19924;-57
2022/09/01 05:20:51;;;;;;;;;;;14.10;99.90;;;;;;5068836;28;20319;-55
2022/09/01 05:23:19;;;;;;;;;;;14.10;99.90;;;;;;5084716;28;19943;-55
2022/09/01 05:25:48;;;;;;;;;;;14.00;99.90;;;;;;5103079;28;19924;-57
2022/09/01 05:28:17;;;;;;;;;;;14.00;99.90;;;;;;5079091;28;19936;-57
2022/09/01 05:30:46;;;;;;;;;;;13.90;99.90;;;;;;5086199;28;19932;-56
2022/09/01 05:33:17;;;;;;;;;;;13.90;99.90;;;;;;5083536;28;19928;-56
2022/09/01 05:35:54;;;;;;;;;;;13.80;99.90;;;;;;5077412;28;19924;-56
2022/09/01 05:38:23;;;;;;;;;;;13.80;99.90;;;;;;5104775;28;19924;-56
2022/09/01 05:40:54;;;;;;;;;;;13.80;99.90;;;;;;5090356;28;19928;-56
2022/09/01 05:43:25;;;;;;;;;;;13.70;99.90;;;;;;5083682;28;19932;-56
2022/09/01 05:45:53;;;;;;;;;;;13.70;99.90;;;;;;5074601;28;19924;-57
2022/09/01 05:48:38;;;;;;;;;;;13.70;99.90;;;;;;5077134;28;20430;-56
2022/09/01 05:51:09;;;;;;;;;;;13.70;99.90;;;;;;5085279;28;19931;-56
2022/09/01 05:53:57;;;;;;;;;;;13.70;99.90;;;;;;5086260;28;19932;-57
2022/09/01 05:56:28;;;;;;;;;;;13.70;99.90;;;;;;5076995;28;20280;-60
2022/09/01 05:58:58;;;;;;;;;;;13.80;99.90;;;;;;5075012;28;19928;-57
2022/09/01 06:01:47;;;;;;;;;;;13.80;99.90;;;;;;5069897;28;19924;-61
2022/09/01 06:04:17;;;;;;;;;;;13.90;99.90;;;;;;5082122;28;20447;-56
2022/09/01 06:06:48;;;;;;;;;;;13.90;99.90;;;;;;5087445;28;19924;-57
2022/09/01 06:09:36;;;;;;;;;;;14.00;99.90;;;;;;5085155;28;19924;-55
2022/09/01 06:12:05;;;;;;;;;;;14.10;99.90;;;;;;5074083;28;19924;-55
2022/09/01 06:14:33;;;;;;;;;;;14.10;99.90;;;;;;5083419;28;19928;-55
2022/09/01 06:17:02;;;;;;;;;;;14.20;99.90;;;;;;5076979;28;19943;-55
2022/09/01 06:19:31;;;;;;;;;;;14.20;99.90;;;;;;5082167;28;19928;-55
2022/09/01 06:22:03;;;;;;;;;;;14.20;99.90;;;;;;5088218;28;20315;-57
2022/09/01 06:24:31;;;;;;;;;;;14.30;99.90;;;;;;5076556;28;19959;-57
2022/09/01 06:26:59;;;;;;;;;;;14.30;99.90;;;;;;5052976;28;20383;-55
2022/09/01 06:29:30;;;;;;;;;;;14.30;99.90;;;;;;5068754;28;19929;-56
2022/09/01 06:32:01;;;;;;;;;;;14.30;99.90;;;;;;5081340;28;20307;-55
2022/09/01 06:34:28;;;;;;;;;;;14.40;99.90;;;;;;5088712;28;19931;-57
2022/09/01 06:36:56;;;;;;;;;;;14.40;99.90;;;;;;5066229;28;19924;-57
2022/09/01 06:39:25;;;;;;;;;;;14.40;99.90;;;;;;5096178;28;19928;-56
2022/09/01 06:41:54;;;;;;;;;;;14.50;99.90;;;;;;5081160;28;19924;-55
2022/09/01 06:44:27;;;;;;;;;;;14.50;99.90;;;;;;5089453;28;20458;-55
2022/09/01 06:47:00;;;;;;;;;;;14.60;99.90;;;;;;5066502;28;20533;-58
2022/09/01 06:49:35;;;;;;;;;;;14.60;99.90;;;;;;5072565;28;19932;-55
2022/09/01 06:52:10;;;;;;;;;;;14.70;99.90;;;;;;5074966;28;19935;-56
2022/09/01 06:54:40;;;;;;;;;;;14.70;99.90;;;;;;5088426;28;19931;-55
2022/09/01 06:57:07;;;;;;;;;;;14.80;99.90;;;;;;5072710;28;20268;-56
2022/09/01 06:59:55;;;;;;;;;;;14.80;99.90;;;;;;5066948;28;19925;-55
2022/09/01 07:02:23;;;;;;;;;;;14.90;99.90;;;;;;5074508;28;19924;-57
2022/09/01 07:05:33;;;;;;;;;;;15.00;99.90;;;;;;5073149;28;19935;-55
2022/09/01 07:08:38;;;;;;;;;;;15.00;99.90;;;;;;5069451;28;19924;-56
2022/09/01 07:11:31;;;;;;;;;;;15.10;99.90;;;;;;5074517;28;19931;-57
2022/09/01 07:14:19;;;;;;;;;;;15.10;99.90;;;;;;5079625;28;19931;-58
2022/09/01 07:16:47;;;;;;;;;;;15.20;99.90;;;;;;5074706;28;19925;-59
2022/09/01 07:19:20;;;;;;;;;;;15.30;99.90;;;;;;5077776;28;19928;-56
2022/09/01 07:21:55;;;;;;;;;;;15.30;99.90;;;;;;5060986;28;19998;-56
2022/09/01 07:24:47;;;;;;;;;;;15.30;99.90;;;;;;5087690;28;19924;-56
2022/09/01 07:28:12;;;;;;;;;;;15.40;99.90;;;;;;5087078;28;19928;-56
2022/09/01 07:30:44;;;;;;;;;;;15.50;99.90;;;;;;5087289;28;19924;-55
2022/09/01 07:33:23;;;;;;;;;;;15.60;99.90;;;;;;5083031;28;19930;-57
2022/09/01 07:36:11;;;;;;;;;;;15.60;99.90;;;;;;5080101;28;19998;-58
2022/09/01 07:38:56;;;;;;;;;;;15.70;99.90;;;;;;5078159;28;19924;-58
2022/09/01 07:41:59;;;;;;;;;;;15.80;99.90;;;;;;5107226;28;19950;-56
2022/09/01 07:45:08;;;;;;;;;;;15.80;99.90;;;;;;5068300;28;19931;-57
2022/09/01 07:47:58;;;;;;;;;;;15.80;99.90;;;;;;5071708;28;20296;-57
2022/09/01 07:50:27;;;;;;;;;;;16.00;99.90;;;;;;5067293;28;19925;-55
2022/09/01 07:53:26;;;;;;;;;;;16.00;99.90;;;;;;5086565;28;19931;-54
2022/09/01 07:55:55;;;;;;;;;;;16.20;99.90;;;;;;5083094;28;19924;-56
2022/09/01 07:58:24;;;;;;;;;;;16.20;99.90;;;;;;5067021;28;20291;-56
2022/09/01 08:01:00;;;;;;;;;;;16.30;99.90;;;;;;5083856;28;19932;-55
2022/09/01 08:03:29;;;;;;;;;;;16.40;99.90;;;;;;5075143;28;19924;-58
2022/09/01 08:06:02;;;;;;;;;;;16.50;99.90;;;;;;5066942;28;19925;-56
2022/09/01 08:08:30;;;;;;;;;;;16.60;99.90;;;;;;5081894;28;19932;-55
2022/09/01 08:10:58;;;;;;;;;;;16.70;99.90;;;;;;5087229;28;20379;-57
2022/09/01 08:13:36;;;;;;;;;;;16.70;99.90;;;;;;5090394;28;19947;-57
2022/09/01 08:16:09;;;;;;;;;;;16.80;99.90;;;;;;5074466;28;19924;-57
2022/09/01 08:18:46;;;;;;;;;;;16.80;99.90;;;;;;5076944;28;19925;-56
2022/09/01 08:21:34;;;;;;;;;;;16.90;99.90;;;;;;5054058;28;19940;-56
2022/09/01 08:24:03;;;;;;;;;;;17.00;99.90;;;;;;5102656;27;20316;-57
2022/09/01 08:26:33;;;;;;;;;;;17.00;99.90;;;;;;5084907;28;19924;-57
2022/09/01 08:29:05;;;;;;;;;;;17.00;99.90;;;;;;5067757;28;19925;-54
2022/09/01 08:31:37;;;;;;;;;;;17.10;99.90;;;;;;5070618;28;19925;-57
2022/09/01 08:34:05;;;;;;;;;;;17.10;99.90;;;;;;5073556;28;19924;-58
2022/09/01 08:36:33;;;;;;;;;;;17.10;99.90;;;;;;5080629;28;20390;-58
2022/09/01 08:39:03;;;;;;;;;;;17.10;99.90;;;;;;5091709;28;19935;-58
2022/09/01 08:41:40;;;;;;;;;;;17.20;99.90;;;;;;5081349;28;19932;-59
2022/09/01 08:44:33;;;;;;;;;;;17.30;99.90;;;;;;5082999;28;20740;-58
2022/09/01 08:47:03;;;;;;;;;;;17.30;99.90;;;;;;5095754;28;20299;-58
2022/09/01 08:49:33;;;;;;;;;;;17.30;99.90;;;;;;5070446;28;19931;-57
2022/09/01 08:52:19;;;;;;;;;;;17.40;99.90;;;;;;5071716;28;19939;-58
2022/09/01 08:54:50;;;;;;;;;;;17.50;99.90;;;;;;5078582;28;19935;-57
2022/09/01 08:57:38;;;;;;;;;;;17.60;99.90;;;;;;5073709;28;22096;-58
2022/09/01 09:00:23;;;;;;;;;;;17.60;99.90;;;;;;5077210;28;19924;-55
2022/09/01 09:03:05;;;;;;;;;;;17.70;99.90;;;;;;5085705;28;20209;-55
2022/09/01 09:05:42;;;;;;;;;;;17.70;99.90;;;;;;5080038;28;19932;-57
2022/09/01 09:08:28;;;;;;;;;;;17.80;99.90;;;;;;5074286;28;19928;-57
2022/09/01 09:11:05;;;;;;;;;;;17.80;99.90;;;;;;5079584;28;20264;-55
2022/09/01 09:13:51;;;;;;;;;;;17.90;99.90;;;;;;5088603;28;19932;-56
2022/09/01 09:16:28;;;;;;;;;;;18.00;99.90;;;;;;5090843;28;20307;-55
2022/09/01 09:19:01;;;;;;;;;;;18.10;99.90;;;;;;5074053;28;19928;-58
2022/09/01 09:21:32;;;;;;;;;;;18.20;99.90;;;;;;5086665;28;19925;-57
2022/09/01 09:24:06;;;;;;;;;;;18.30;99.90;;;;;;5089071;28;19924;-58
2022/09/01 09:26:33;;;;;;;;;;;18.40;99.90;;;;;;5073419;28;19932;-56
2022/09/01 09:29:09;;;;;;;;;;;18.50;99.70;;;;;;5087698;28;19931;-57
2022/09/01 09:31:42;;;;;;;;;;;18.60;99.40;;;;;;5090293;28;20291;-59
2022/09/01 09:34:31;;;;;;;;;;;18.70;99.00;;;;;;5089691;28;19924;-55
2022/09/01 09:37:17;;;;;;;;;;;18.80;98.70;;;;;;5090060;28;19924;-56
2022/09/01 09:40:00;;;;;;;;;;;18.90;98.30;;;;;;5099198;28;20005;-57
2022/09/01 09:42:28;;;;;;;;;;;19.10;97.70;;;;;;5105260;28;19924;-58
2022/09/01 09:45:03;;;;;;;;;;;19.20;97.50;;;;;;5109403;28;19931;-58
2022/09/01 09:47:35;;;;;;;;;;;19.30;97.20;;;;;;5093354;28;19928;-56
2022/09/01 09:50:16;;;;;;;;;;;19.40;97.00;;;;;;5069600;28;20556;-59
2022/09/01 09:52:45;;;;;;;;;;;19.50;96.90;;;;;;5076765;28;19928;-61
2022/09/01 09:55:20;;;;;;;;;;;19.70;96.50;;;;;;5079228;28;20416;-59
2022/09/01 09:57:49;;;;;;;;;;;19.80;96.70;;;;;;5089157;28;19928;-57
2022/09/01 10:00:19;;;;;;;;;;;19.90;96.60;;;;;;5083245;28;19924;-59
2022/09/01 10:02:54;;;;;;;;;;;20.00;96.50;;;;;;5077326;28;19924;-59
2022/09/01 10:05:26;;;;;;;;;;;20.00;96.20;;;;;;5079547;28;20384;-57
2022/09/01 10:07:55;;;;;;;;;;;20.00;96.40;;;;;;5072812;28;19939;-60
2022/09/01 10:10:28;;;;;;;;;;;20.00;95.60;;;;;;5078770;28;19925;-59
2022/09/01 10:12:56;;;;;;;;;;;20.10;95.30;;;;;;5082936;28;19924;-57
2022/09/01 10:15:26;;;;;;;;;;;20.20;95.40;;;;;;5105068;28;19931;-59
2022/09/01 10:17:57;;;;;;;;;;;20.30;95.20;;;;;;5065757;28;19947;-60
2022/09/01 10:20:52;;;;;;;;;;;20.40;94.80;;;;;;5089334;28;19928;-57
2022/09/01 10:23:19;;;;;;;;;;;20.60;94.60;;;;;;5093467;28;19931;-56
2022/09/01 10:25:49;;;;;;;;;;;20.70;94.50;;;;;;5109878;28;19927;-58
2022/09/01 10:28:20;;;;;;;;;;;20.80;94.20;;;;;;5099219;28;19943;-57
2022/09/01 10:30:50;;;;;;;;;;;20.90;93.90;;;;;;5071712;28;19925;-60
2022/09/01 10:33:18;;;;;;;;;;;21.00;93.60;;;;;;5080475;28;19924;-55
2022/09/01 10:35:50;;;;;;;;;;;21.20;93.60;;;;;;5075170;28;19932;-58
2022/09/01 10:38:35;;;;;;;;;;;21.20;93.00;;;;;;5078986;28;19924;-56
2022/09/01 10:41:08;;;;;;;;;;;21.30;92.70;;;;;;5076205;28;20450;-56
2022/09/01 10:43:44;;;;;;;;;;;21.40;92.00;;;;;;5080379;28;20398;-57
2022/09/01 10:46:19;;;;;;;;;;;21.50;91.40;;;;;;5068813;28;19931;-57
2022/09/01 10:49:20;;;;;;;;;;;21.60;91.60;;;;;;5073946;28;19931;-58
2022/09/01 10:51:55;;;;;;;;;;;21.60;91.20;;;;;;5068290;28;19932;-58
2022/09/01 10:54:38;;;;;;;;;;;21.70;91.00;;;;;;5094962;28;19924;-57
2022/09/01 10:57:17;;;;;;;;;;;21.80;90.50;;;;;;5074065;28;19927;-59
2022/09/01 10:59:45;;;;;;;;;;;21.80;90.60;;;;;;5088963;28;19928;-59
2022/09/01 11:02:23;;;;;;;;;;;21.90;91.10;;;;;;5072458;28;19940;-56
2022/09/01 11:05:00;;;;;;;;;;;21.90;90.50;;;;;;5088847;28;19924;-56
2022/09/01 11:07:29;;;;;;;;;;;21.90;90.50;;;;;;5088452;28;19931;-57
2022/09/01 11:10:20;;;;;;;;;;;22.00;90.50;;;;;;5097449;28;19932;-58
2022/09/01 11:13:14;;;;;;;;;;;22.10;90.10;;;;;;5087054;28;19931;-60
2022/09/01 11:15:42;;;;;;;;;;;22.10;89.90;;;;;;5067201;28;19939;-59
2022/09/01 11:18:14;;;;;;;;;;;22.20;89.70;;;;;;5077526;28;20406;-60
2022/09/01 11:20:45;;;;;;;;;;;22.30;89.00;;;;;;5069146;28;19947;-58
2022/09/01 11:23:26;;;;;;;;;;;22.40;88.70;;;;;;5079130;28;20280;-56
2022/09/01 11:25:55;;;;;;;;;;;22.40;87.80;;;;;;5088769;28;20489;-57
2022/09/01 11:28:43;;;;;;;;;;;22.50;88.90;;;;;;5099000;28;20090;-59
2022/09/01 11:31:30;;;;;;;;;;;22.80;87.60;;;;;;5090654;28;20301;-59
2022/09/01 11:34:03;;;;;;;;;;;22.50;86.00;;;;;;5092008;28;19924;-57
2022/09/01 11:36:35;;;;;;;;;;;23.10;86.00;;;;;;5085754;28;19928;-58
2022/09/01 11:39:05;;;;;;;;;;;23.20;86.40;;;;;;5088426;28;19928;-58
2022/09/01 11:41:40;;;;;;;;;;;23.50;84.50;;;;;;5096431;28;19928;-57
2022/09/01 11:44:11;;;;;;;;;;;23.70;85.00;;;;;;5081067;28;20021;-58
2022/09/01 11:46:42;;;;;;;;;;;24.00;84.60;;;;;;5083388;28;19931;-61
2022/09/01 11:49:42;;;;;;;;;;;24.20;84.30;;;;;;5075777;28;19935;-59
2022/09/01 11:52:13;;;;;;;;;;;24.30;81.70;;;;;;5068774;28;19935;-58
2022/09/01 11:54:42;;;;;;;;;;;24.50;81.60;;;;;;5078987;28;19935;-57
2022/09/01 11:57:27;;;;;;;;;;;24.60;80.10;;;;;;5069305;28;19928;-59
2022/09/01 11:59:56;;;;;;;;;;;24.80;81.10;;;;;;5088698;28;19924;-60
2022/09/01 12:02:26;;;;;;;;;;;25.00;79.50;;;;;;5088460;28;19928;-59
2022/09/01 12:04:55;;;;;;;;;;;25.10;79.20;;;;;;5106200;28;19928;-57
2022/09/01 12:07:29;;;;;;;;;;;25.40;78.20;;;;;;5091091;28;19931;-57
2022/09/01 12:09:56;;;;;;;;;;;25.50;77.40;;;;;;5088949;28;19932;-57
2022/09/01 12:12:33;;;;;;;;;;;25.80;76.00;;;;;;5086566;28;19931;-58
2022/09/01 12:15:02;;;;;;;;;;;26.00;74.90;;;;;;5086626;28;19931;-59
2022/09/01 12:17:33;;;;;;;;;;;26.10;75.60;;;;;;5091969;28;19931;-57
2022/09/01 12:20:39;;;;;;;;;;;26.10;74.70;;;;;;5104116;28;19924;-57
2022/09/01 12:23:18;;;;;;;;;;;26.00;73.70;;;;;;5064546;28;20184;-57
2022/09/01 12:25:46;;;;;;;;;;;25.80;73.50;;;;;;5067847;28;19924;-56
2022/09/01 12:28:13;;;;;;;;;;;26.00;74.40;;;;;;5083552;28;19935;-57
2022/09/01 12:30:43;;;;;;;;;;;26.30;74.90;;;;;;5071750;28;19959;-58
2022/09/01 12:33:12;;;;;;;;;;;26.60;73.50;;;;;;5084123;28;20172;-57
2022/09/01 12:36:18;;;;;;;;;;;26.90;72.50;;;;;;5072701;28;19955;-58
2022/09/01 12:38:46;;;;;;;;;;;27.10;72.20;;;;;;5083024;28;19928;-57
2022/09/01 12:41:33;;;;;;;;;;;27.30;71.50;;;;;;5084109;28;20211;-58
2022/09/01 12:44:19;;;;;;;;;;;27.30;71.20;;;;;;5084789;28;19924;-58
2022/09/01 12:46:47;;;;;;;;;;;27.40;69.60;;;;;;5080125;28;19939;-58
2022/09/01 12:49:16;;;;;;;;;;;27.50;69.30;;;;;;5082651;28;19935;-57
2022/09/01 12:51:46;;;;;;;;;;;27.70;68.90;;;;;;5069991;28;19928;-59
2022/09/01 12:54:14;;;;;;;;;;;28.00;68.20;;;;;;5085328;28;19931;-59
2022/09/01 12:56:46;;;;;;;;;;;28.00;67.20;;;;;;5053010;28;19932;-58
2022/09/01 12:59:20;;;;;;;;;;;28.00;67.10;;;;;;5090852;28;19931;-59
2022/09/01 13:02:21;;;;;;;;;;;28.00;66.80;;;;;;5091104;28;19924;-60
2022/09/01 13:04:48;;;;;;;;;;;28.00;66.60;;;;;;5089372;28;19928;-57
2022/09/01 13:07:16;;;;;;;;;;;28.10;66.50;;;;;;5080248;28;19998;-58
2022/09/01 13:09:44;;;;;;;;;;;28.10;65.60;;;;;;5100803;28;19931;-58
2022/09/01 13:12:16;;;;;;;;;;;28.10;65.30;;;;;;5104231;28;19924;-58
2022/09/01 13:14:43;;;;;;;;;;;28.10;66.20;;;;;;5093043;28;20306;-58
2022/09/01 13:17:11;;;;;;;;;;;28.20;65.40;;;;;;5069452;28;19928;-59
2022/09/01 13:19:41;;;;;;;;;;;28.30;65.00;;;;;;5089724;28;19924;-58
2022/09/01 13:22:08;;;;;;;;;;;28.40;65.00;;;;;;5080459;28;19932;-59
2022/09/01 13:24:36;;;;;;;;;;;28.60;65.30;;;;;;5087882;28;19931;-58
2022/09/01 13:27:04;;;;;;;;;;;28.80;65.80;;;;;;5070270;28;19931;-57
2022/09/01 13:29:49;;;;;;;;;;;28.60;64.40;;;;;;5070255;28;19928;-57
2022/09/01 13:32:17;;;;;;;;;;;28.20;64.90;;;;;;5072722;28;19940;-57
2022/09/01 13:34:49;;;;;;;;;;;28.20;65.80;;;;;;5083846;28;19935;-57
2022/09/01 13:37:18;;;;;;;;;;;28.40;65.60;;;;;;5071576;28;19924;-57
2022/09/01 13:39:47;;;;;;;;;;;28.70;65.20;;;;;;5099181;28;20291;-57
2022/09/01 13:42:15;;;;;;;;;;;28.90;64.70;;;;;;5085475;28;19928;-58
2022/09/01 13:44:43;;;;;;;;;;;29.30;64.40;;;;;;5076354;28;19932;-57
2022/09/01 13:47:11;;;;;;;;;;;29.50;64.20;;;;;;5069044;28;20119;-58
2022/09/01 13:49:59;;;;;;;;;;;29.30;62.90;;;;;;5070371;28;19925;-57
2022/09/01 13:52:38;;;;;;;;;;;28.80;63.40;;;;;;5074502;28;19932;-57
2022/09/01 13:55:06;;;;;;;;;;;28.20;63.80;;;;;;5069949;28;20372;-58
2022/09/01 13:57:34;;;;;;;;;;;27.80;65.10;;;;;;5080623;28;19924;-58
2022/09/01 14:00:03;;;;;;;;;;;27.80;64.90;;;;;;5090028;28;19947;-59
2022/09/01 14:02:41;;;;;;;;;;;28.00;64.30;;;;;;5094525;28;19924;-58
2022/09/01 14:05:09;;;;;;;;;;;28.10;63.30;;;;;;5090845;28;19932;-58
2022/09/01 14:07:36;;;;;;;;;;;28.40;63.40;;;;;;5081142;28;19959;-58
2022/09/01 14:10:06;;;;;;;;;;;28.60;62.80;;;;;;5090606;28;19927;-58
2022/09/01 14:12:34;;;;;;;;;;;28.80;62.70;;;;;;5077348;28;19924;-58
2022/09/01 14:15:02;;;;;;;;;;;29.10;63.50;;;;;;5089624;28;19924;-58
2022/09/01 14:17:43;;;;;;;;;;;29.30;62.00;;;;;;5088027;28;19931;-58
2022/09/01 14:20:13;;;;;;;;;;;29.50;62.00;;;;;;5089703;28;19935;-58
2022/09/01 14:22:40;;;;;;;;;;;29.50;61.80;;;;;;5081451;28;19931;-57
2022/09/01 14:25:11;;;;;;;;;;;29.20;61.50;;;;;;5077273;28;19924;-57
2022/09/01 14:27:39;;;;;;;;;;;28.90;61.80;;;;;;5073249;28;19928;-60
2022/09/01 14:30:08;;;;;;;;;;;28.90;61.80;;;;;;5088185;28;19931;-62
2022/09/01 14:32:35;;;;;;;;;;;28.80;62.30;;;;;;5089071;28;19931;-58
2022/09/01 14:35:06;;;;;;;;;;;28.70;61.20;;;;;;5087418;28;20022;-57
2022/09/01 14:37:37;;;;;;;;;;;28.50;61.70;;;;;;5083653;28;20435;-56
2022/09/01 14:40:06;;;;;;;;;;;28.30;61.60;;;;;;5087243;28;19928;-58
2022/09/01 14:42:35;;;;;;;;;;;28.10;62.10;;;;;;5088188;28;19930;-58
2022/09/01 14:45:06;;;;;;;;;;;27.80;63.10;;;;;;5107387;28;20551;-58
2022/09/01 14:47:35;;;;;;;;;;;27.40;64.00;;;;;;5079130;28;19924;-59
2022/09/01 14:50:03;;;;;;;;;;;27.20;63.50;;;;;;5089096;28;19924;-57
2022/09/01 14:52:31;;;;;;;;;;;27.00;64.60;;;;;;5091736;28;19923;-57
2022/09/01 14:54:59;;;;;;;;;;;26.70;64.80;;;;;;5091571;28;19947;-58
2022/09/01 14:57:26;;;;;;;;;;;26.50;65.40;;;;;;5072929;28;19924;-58